sensor_id;sensor_type;location;lat;lon;timestamp;pressure;altitude;pressure_sealevel;temperature;humidity
19777;BME280;10047;42.490;26.012;2023-02-20T00:00:33;100224.75;;;14.53;100.00
19777;BME280;10047;42.490;26.012;2023-02-20T00:02:58;100220.41;;;14.33;100.00
19777;BME280;10047;42.490;26.012;2023-02-20T00:05:24;100162.75;;;13.81;100.00
19777;BME280;10047;42.490;26.012;2023-02-20T00:07:49;100160.56;;;13.49;100.00
19777;BME280;10047;42.490;26.012;2023-02-20T00:10:17;100163.97;;;13.50;100.00
19777;BME280;10047;42.490;26.012;2023-02-20T00:12:44;100200.88;;;14.09;100.00
19777;BME280;10047;42.490;26.012;2023-02-20T00:15:13;100212.78;;;14.10;100.00
19777;BME280;10047;42.490;26.012;2023-02-20T00:17:41;100195.38;;;14.41;100.00
19777;BME280;10047;42.490;26.012;2023-02-20T00:20:07;100203.63;;;14.48;100.00
19777;BME280;10047;42.490;26.012;2023-02-20T00:22:32;100156.53;;;14.10;100.00
19777;BME280;10047;42.490;26.012;2023-02-20T00:24:57;100184.88;;;14.26;100.00
19777;BME280;10047;42.490;26.012;2023-02-20T00:27:23;100204.44;;;14.27;100.00
19777;BME280;10047;42.490;26.012;2023-02-20T00:29:48;100211.00;;;14.12;100.00
19777;BME280;10047;42.490;26.012;2023-02-20T00:32:14;100180.91;;;14.19;100.00
19777;BME280;10047;42.490;26.012;2023-02-20T00:34:39;100206.09;;;14.29;100.00
19777;BME280;10047;42.490;26.012;2023-02-20T00:37:05;100153.56;;;13.99;100.00
19777;BME280;10047;42.490;26.012;2023-02-20T00:39:31;100152.53;;;14.03;100.00
19777;BME280;10047;42.490;26.012;2023-02-20T00:41:56;100161.16;;;14.01;100.00
19777;BME280;10047;42.490;26.012;2023-02-20T00:44:23;100207.91;;;14.26;100.00
19777;BME280;10047;42.490;26.012;2023-02-20T00:46:49;100158.56;;;14.02;100.00
19777;BME280;10047;42.490;26.012;2023-02-20T00:49:14;100193.91;;;14.36;100.00
19777;BME280;10047;42.490;26.012;2023-02-20T00:51:39;100170.34;;;14.06;100.00
19777;BME280;10047;42.490;26.012;2023-02-20T00:54:05;100203.34;;;14.34;100.00
19777;BME280;10047;42.490;26.012;2023-02-20T00:56:30;100188.03;;;14.11;100.00
19777;BME280;10047;42.490;26.012;2023-02-20T00:58:56;100205.25;;;14.29;100.00
19777;BME280;10047;42.490;26.012;2023-02-20T01:01:22;100225.84;;;14.24;100.00
19777;BME280;10047;42.490;26.012;2023-02-20T01:03:47;100177.56;;;13.95;100.00
19777;BME280;10047;42.490;26.012;2023-02-20T01:06:13;100183.16;;;14.05;100.00
19777;BME280;10047;42.490;26.012;2023-02-20T01:08:38;100229.97;;;14.50;100.00
19777;BME280;10047;42.490;26.012;2023-02-20T01:11:04;100173.00;;;14.03;100.00
19777;BME280;10047;42.490;26.012;2023-02-20T01:13:29;100165.00;;;14.11;100.00
19777;BME280;10047;42.490;26.012;2023-02-20T01:15:55;100147.25;;;13.86;100.00
19777;BME280;10047;42.490;26.012;2023-02-20T01:18:20;100224.91;;;14.27;100.00
19777;BME280;10047;42.490;26.012;2023-02-20T01:20:46;100226.31;;;14.35;100.00
19777;BME280;10047;42.490;26.012;2023-02-20T01:23:13;100177.34;;;14.01;100.00
19777;BME280;10047;42.490;26.012;2023-02-20T01:25:38;100226.63;;;14.28;100.00
19777;BME280;10047;42.490;26.012;2023-02-20T01:28:04;100212.75;;;14.33;100.00
19777;BME280;10047;42.490;26.012;2023-02-20T01:30:29;100177.25;;;14.03;100.00
19777;BME280;10047;42.490;26.012;2023-02-20T01:32:55;100218.69;;;14.34;100.00
19777;BME280;10047;42.490;26.012;2023-02-20T01:35:20;100161.53;;;13.91;100.00
19777;BME280;10047;42.490;26.012;2023-02-20T01:37:46;100217.59;;;14.18;100.00
19777;BME280;10047;42.490;26.012;2023-02-20T01:40:20;100226.97;;;14.17;100.00
19777;BME280;10047;42.490;26.012;2023-02-20T01:42:46;100169.66;;;13.79;100.00
19777;BME280;10047;42.490;26.012;2023-02-20T01:45:27;100229.16;;;14.26;100.00
19777;BME280;10047;42.490;26.012;2023-02-20T01:47:55;100229.38;;;14.22;100.00
19777;BME280;10047;42.490;26.012;2023-02-20T01:50:27;100206.63;;;13.92;100.00
19777;BME280;10047;42.490;26.012;2023-02-20T01:52:57;100222.63;;;13.98;100.00
19777;BME280;10047;42.490;26.012;2023-02-20T01:55:37;100225.53;;;13.88;100.00
19777;BME280;10047;42.490;26.012;2023-02-20T01:58:16;100225.00;;;13.80;100.00
19777;BME280;10047;42.490;26.012;2023-02-20T02:00:43;100225.66;;;13.85;100.00
19777;BME280;10047;42.490;26.012;2023-02-20T02:03:13;100227.56;;;13.80;100.00
19777;BME280;10047;42.490;26.012;2023-02-20T02:05:41;100239.59;;;13.77;100.00
19777;BME280;10047;42.490;26.012;2023-02-20T02:08:10;100223.84;;;13.66;100.00
19777;BME280;10047;42.490;26.012;2023-02-20T02:11:00;100232.94;;;13.73;100.00
19777;BME280;10047;42.490;26.012;2023-02-20T02:13:27;100186.13;;;13.49;100.00
19777;BME280;10047;42.490;26.012;2023-02-20T02:40:32;100239.28;;;12.89;100.00
19777;BME280;10047;42.490;26.012;2023-02-20T02:43:07;100283.22;;;13.23;100.00
19777;BME280;10047;42.490;26.012;2023-02-20T02:45:47;100276.16;;;13.31;100.00
19777;BME280;10047;42.490;26.012;2023-02-20T02:48:31;100268.50;;;13.31;100.00
19777;BME280;10047;42.490;26.012;2023-02-20T02:51:14;100253.44;;;13.24;100.00
19777;BME280;10047;42.490;26.012;2023-02-20T02:53:40;100240.59;;;13.00;100.00
19777;BME280;10047;42.490;26.012;2023-02-20T02:56:07;100215.25;;;12.70;100.00
19777;BME280;10047;42.490;26.012;2023-02-20T02:58:50;100258.09;;;13.13;100.00
19777;BME280;10047;42.490;26.012;2023-02-20T03:01:19;100261.63;;;13.09;100.00
19777;BME280;10047;42.490;26.012;2023-02-20T03:03:47;100271.16;;;13.02;100.00
19777;BME280;10047;42.490;26.012;2023-02-20T03:06:17;100267.44;;;12.86;100.00
19777;BME280;10047;42.490;26.012;2023-02-20T03:08:52;100272.16;;;12.72;100.00
19777;BME280;10047;42.490;26.012;2023-02-20T03:11:23;100205.88;;;12.46;100.00
19777;BME280;10047;42.490;26.012;2023-02-20T03:17:28;100276.03;;;13.10;100.00
19777;BME280;10047;42.490;26.012;2023-02-20T03:19:40;100242.84;;;13.10;100.00
19777;BME280;10047;42.490;26.012;2023-02-20T03:22:12;100212.81;;;12.67;100.00
19777;BME280;10047;42.490;26.012;2023-02-20T03:24:42;100224.44;;;12.75;100.00
19777;BME280;10047;42.490;26.012;2023-02-20T03:27:29;100225.91;;;12.56;100.00
19777;BME280;10047;42.490;26.012;2023-02-20T03:30:05;100214.72;;;12.34;100.00
19777;BME280;10047;42.490;26.012;2023-02-20T03:32:32;100269.34;;;12.81;100.00
19777;BME280;10047;42.490;26.012;2023-02-20T03:35:17;100239.97;;;12.68;100.00
19777;BME280;10047;42.490;26.012;2023-02-20T03:38:07;100279.44;;;12.84;100.00
19777;BME280;10047;42.490;26.012;2023-02-20T03:40:53;100273.72;;;12.76;100.00
19777;BME280;10047;42.490;26.012;2023-02-20T03:43:39;100235.41;;;12.25;100.00
19777;BME280;10047;42.490;26.012;2023-02-20T03:46:08;100228.53;;;12.27;100.00
19777;BME280;10047;42.490;26.012;2023-02-20T03:48:50;100232.63;;;12.33;100.00
19777;BME280;10047;42.490;26.012;2023-02-20T03:51:17;100260.59;;;12.36;100.00
19777;BME280;10047;42.490;26.012;2023-02-20T03:53:43;100274.47;;;12.53;100.00
19777;BME280;10047;42.490;26.012;2023-02-20T03:56:14;100290.88;;;12.45;100.00
19777;BME280;10047;42.490;26.012;2023-02-20T03:58:46;100286.28;;;12.82;100.00
19777;BME280;10047;42.490;26.012;2023-02-20T04:01:16;100288.75;;;12.85;100.00
19777;BME280;10047;42.490;26.012;2023-02-20T04:03:46;100246.28;;;12.30;100.00
19777;BME280;10047;42.490;26.012;2023-02-20T04:06:14;100300.28;;;12.43;100.00
19777;BME280;10047;42.490;26.012;2023-02-20T04:08:46;100302.91;;;12.41;100.00
19777;BME280;10047;42.490;26.012;2023-02-20T04:11:25;100236.13;;;12.01;100.00
19777;BME280;10047;42.490;26.012;2023-02-20T04:13:53;100309.03;;;12.36;100.00
19777;BME280;10047;42.490;26.012;2023-02-20T04:16:20;100307.88;;;12.46;100.00
19777;BME280;10047;42.490;26.012;2023-02-20T04:18:46;100313.16;;;12.66;100.00
19777;BME280;10047;42.490;26.012;2023-02-20T04:21:38;100320.69;;;12.43;100.00
19777;BME280;10047;42.490;26.012;2023-02-20T04:24:17;100345.50;;;12.38;100.00
19777;BME280;10047;42.490;26.012;2023-02-20T04:26:44;100352.78;;;12.20;100.00
19777;BME280;10047;42.490;26.012;2023-02-20T04:29:10;100351.09;;;12.21;100.00
19777;BME280;10047;42.490;26.012;2023-02-20T04:31:36;100351.47;;;12.07;100.00
19777;BME280;10047;42.490;26.012;2023-02-20T04:34:01;100289.56;;;12.04;100.00
19777;BME280;10047;42.490;26.012;2023-02-20T04:36:27;100366.34;;;11.92;100.00
19777;BME280;10047;42.490;26.012;2023-02-20T04:38:52;100357.97;;;11.88;100.00
19777;BME280;10047;42.490;26.012;2023-02-20T04:41:18;100329.03;;;11.59;100.00
19777;BME280;10047;42.490;26.012;2023-02-20T04:43:43;100361.47;;;11.84;100.00
19777;BME280;10047;42.490;26.012;2023-02-20T04:46:08;100325.75;;;11.86;100.00
19777;BME280;10047;42.490;26.012;2023-02-20T04:48:34;100366.31;;;12.23;100.00
19777;BME280;10047;42.490;26.012;2023-02-20T04:50:59;100371.03;;;12.07;100.00
19777;BME280;10047;42.490;26.012;2023-02-20T04:53:25;100382.06;;;12.37;100.00
19777;BME280;10047;42.490;26.012;2023-02-20T04:55:50;100319.88;;;12.13;100.00
19777;BME280;10047;42.490;26.012;2023-02-20T04:58:16;100388.56;;;12.47;100.00
19777;BME280;10047;42.490;26.012;2023-02-20T05:00:41;100339.56;;;12.08;100.00
19777;BME280;10047;42.490;26.012;2023-02-20T05:03:07;100309.81;;;11.79;100.00
19777;BME280;10047;42.490;26.012;2023-02-20T05:05:32;100338.44;;;11.87;100.00
19777;BME280;10047;42.490;26.012;2023-02-20T05:08:02;100330.28;;;12.05;100.00
19777;BME280;10047;42.490;26.012;2023-02-20T05:10:30;100396.03;;;12.53;100.00
19777;BME280;10047;42.490;26.012;2023-02-20T05:12:55;100402.84;;;12.52;100.00
19777;BME280;10047;42.490;26.012;2023-02-20T05:15:22;100408.28;;;12.42;100.00
19777;BME280;10047;42.490;26.012;2023-02-20T05:17:48;100349.16;;;12.00;100.00
19777;BME280;10047;42.490;26.012;2023-02-20T05:20:15;100420.25;;;12.38;100.00
19777;BME280;10047;42.490;26.012;2023-02-20T05:22:41;100390.66;;;12.03;100.00
19777;BME280;10047;42.490;26.012;2023-02-20T05:25:07;100347.31;;;11.74;100.00
19777;BME280;10047;42.490;26.012;2023-02-20T05:27:32;100432.66;;;12.21;100.00
19777;BME280;10047;42.490;26.012;2023-02-20T05:29:59;100430.84;;;12.25;100.00
19777;BME280;10047;42.490;26.012;2023-02-20T05:32:27;100435.16;;;12.23;100.00
19777;BME280;10047;42.490;26.012;2023-02-20T05:34:53;100373.44;;;12.11;100.00
19777;BME280;10047;42.490;26.012;2023-02-20T05:37:19;100371.34;;;11.95;100.00
19777;BME280;10047;42.490;26.012;2023-02-20T05:39:48;100435.09;;;12.26;100.00
19777;BME280;10047;42.490;26.012;2023-02-20T05:42:14;100379.75;;;11.98;100.00
19777;BME280;10047;42.490;26.012;2023-02-20T05:44:40;100378.47;;;11.84;100.00
19777;BME280;10047;42.490;26.012;2023-02-20T05:47:06;100420.91;;;13.01;100.00
19777;BME280;10047;42.490;26.012;2023-02-20T05:49:32;100449.72;;;15.45;100.00
19777;BME280;10047;42.490;26.012;2023-02-20T05:51:59;100442.34;;;15.80;100.00
19777;BME280;10047;42.490;26.012;2023-02-20T05:54:24;100450.03;;;15.80;98.18
19777;BME280;10047;42.490;26.012;2023-02-20T05:56:50;100408.69;;;16.26;90.39
19777;BME280;10047;42.490;26.012;2023-02-20T05:59:21;100404.56;;;16.79;85.70
19777;BME280;10047;42.490;26.012;2023-02-20T06:01:47;100383.41;;;15.98;89.44
19777;BME280;10047;42.490;26.012;2023-02-20T06:04:17;100405.28;;;17.53;79.71
19777;BME280;10047;42.490;26.012;2023-02-20T06:06:43;100415.00;;;16.93;77.93
19777;BME280;10047;42.490;26.012;2023-02-20T06:09:10;100478.34;;;17.11;77.03
19777;BME280;10047;42.490;26.012;2023-02-20T06:11:36;100441.47;;;17.48;67.24
19777;BME280;10047;42.490;26.012;2023-02-20T06:14:02;100455.28;;;18.79;62.13
19777;BME280;10047;42.490;26.012;2023-02-20T06:16:29;100465.34;;;18.18;61.29
19777;BME280;10047;42.490;26.012;2023-02-20T06:18:55;100521.16;;;18.68;58.87
19777;BME280;10047;42.490;26.012;2023-02-20T06:21:22;100482.28;;;17.90;60.63
19777;BME280;10047;42.490;26.012;2023-02-20T06:23:49;100529.56;;;18.71;55.28
19777;BME280;10047;42.490;26.012;2023-02-20T06:26:15;100522.69;;;18.87;54.80
19777;BME280;10047;42.490;26.012;2023-02-20T06:28:41;100485.97;;;16.77;61.17
19777;BME280;10047;42.490;26.012;2023-02-20T06:31:06;100523.75;;;15.95;67.99
19777;BME280;10047;42.490;26.012;2023-02-20T06:33:32;100522.22;;;14.81;76.36
19777;BME280;10047;42.490;26.012;2023-02-20T06:35:58;100503.91;;;14.45;84.29
19777;BME280;10047;42.490;26.012;2023-02-20T06:38:24;100480.63;;;14.04;87.53
19777;BME280;10047;42.490;26.012;2023-02-20T06:40:50;100503.00;;;14.22;87.88
19777;BME280;10047;42.490;26.012;2023-02-20T06:43:16;100500.16;;;14.31;87.20
19777;BME280;10047;42.490;26.012;2023-02-20T06:45:50;100508.47;;;14.11;88.40
19777;BME280;10047;42.490;26.012;2023-02-20T06:48:16;100447.69;;;13.94;88.72
19777;BME280;10047;42.490;26.012;2023-02-20T06:50:41;100458.97;;;14.14;89.39
19777;BME280;10047;42.490;26.012;2023-02-20T06:53:07;100513.22;;;14.48;88.75
19777;BME280;10047;42.490;26.012;2023-02-20T06:55:33;100520.94;;;14.20;88.89
19777;BME280;10047;42.490;26.012;2023-02-20T06:57:59;100535.19;;;14.29;89.17
19777;BME280;10047;42.490;26.012;2023-02-20T07:00:25;100527.72;;;14.47;89.83
19777;BME280;10047;42.490;26.012;2023-02-20T07:02:50;100490.31;;;14.19;91.86
19777;BME280;10047;42.490;26.012;2023-02-20T07:05:16;100536.69;;;14.34;89.81
19777;BME280;10047;42.490;26.012;2023-02-20T07:07:41;100506.97;;;14.32;89.74
19777;BME280;10047;42.490;26.012;2023-02-20T07:10:07;100571.16;;;14.73;89.24
19777;BME280;10047;42.490;26.012;2023-02-20T07:12:33;100519.00;;;14.53;86.06
19777;BME280;10047;42.490;26.012;2023-02-20T07:15:04;100574.53;;;14.74;90.51
19777;BME280;10047;42.490;26.012;2023-02-20T07:17:30;100580.53;;;14.73;86.84
19777;BME280;10047;42.490;26.012;2023-02-20T07:19:55;100575.22;;;14.79;87.43
19777;BME280;10047;42.490;26.012;2023-02-20T07:22:21;100564.19;;;15.00;86.08
19777;BME280;10047;42.490;26.012;2023-02-20T07:24:53;100581.41;;;14.72;89.45
19777;BME280;10047;42.490;26.012;2023-02-20T07:27:19;100530.50;;;14.64;89.17
19777;BME280;10047;42.490;26.012;2023-02-20T07:29:46;100570.06;;;14.31;91.26
19777;BME280;10047;42.490;26.012;2023-02-20T07:32:12;100522.91;;;14.14;92.91
19777;BME280;10047;42.490;26.012;2023-02-20T07:34:38;100582.22;;;15.20;88.98
19777;BME280;10047;42.490;26.012;2023-02-20T07:37:03;100588.31;;;14.70;91.17
19777;BME280;10047;42.490;26.012;2023-02-20T07:39:28;100574.13;;;14.61;89.18
19777;BME280;10047;42.490;26.012;2023-02-20T07:41:54;100522.78;;;14.89;83.36
19777;BME280;10047;42.490;26.012;2023-02-20T07:44:20;100573.72;;;15.41;85.84
19777;BME280;10047;42.490;26.012;2023-02-20T07:46:45;100582.84;;;14.81;84.19
19777;BME280;10047;42.490;26.012;2023-02-20T07:49:10;100530.97;;;14.26;86.50
19777;BME280;10047;42.490;26.012;2023-02-20T07:51:36;100531.28;;;14.17;86.85
19777;BME280;10047;42.490;26.012;2023-02-20T07:54:01;100532.88;;;15.15;81.79
19777;BME280;10047;42.490;26.012;2023-02-20T07:56:27;100589.50;;;14.61;87.34
19777;BME280;10047;42.490;26.012;2023-02-20T07:58:52;100608.81;;;15.39;84.22
19777;BME280;10047;42.490;26.012;2023-02-20T08:01:18;100545.69;;;15.15;83.09
19777;BME280;10047;42.490;26.012;2023-02-20T08:03:45;100563.47;;;14.97;84.63
19777;BME280;10047;42.490;26.012;2023-02-20T08:06:21;100616.56;;;14.92;89.09
19777;BME280;10047;42.490;26.012;2023-02-20T08:08:50;100636.66;;;14.79;84.52
19777;BME280;10047;42.490;26.012;2023-02-20T08:11:21;100583.94;;;14.49;86.86
19777;BME280;10047;42.490;26.012;2023-02-20T08:13:47;100591.47;;;15.01;86.68
19777;BME280;10047;42.490;26.012;2023-02-20T08:16:12;100621.84;;;14.87;88.04
19777;BME280;10047;42.490;26.012;2023-02-20T08:18:38;100575.59;;;14.44;86.70
19777;BME280;10047;42.490;26.012;2023-02-20T08:21:03;100626.19;;;14.85;86.41
19777;BME280;10047;42.490;26.012;2023-02-20T08:23:29;100587.28;;;14.25;91.69
19777;BME280;10047;42.490;26.012;2023-02-20T08:25:54;100589.47;;;14.37;89.95
19777;BME280;10047;42.490;26.012;2023-02-20T08:28:20;100644.28;;;14.81;85.83
19777;BME280;10047;42.490;26.012;2023-02-20T08:30:46;100647.81;;;15.01;80.64
19777;BME280;10047;42.490;26.012;2023-02-20T08:33:11;100637.06;;;14.67;76.77
19777;BME280;10047;42.490;26.012;2023-02-20T08:35:37;100606.31;;;14.44;78.55
19777;BME280;10047;42.490;26.012;2023-02-20T08:38:04;100633.47;;;14.96;75.50
19777;BME280;10047;42.490;26.012;2023-02-20T08:40:31;100615.50;;;14.49;74.71
19777;BME280;10047;42.490;26.012;2023-02-20T08:42:58;100617.19;;;14.23;76.59
19777;BME280;10047;42.490;26.012;2023-02-20T08:45:23;100610.19;;;14.29;75.37
19777;BME280;10047;42.490;26.012;2023-02-20T08:47:49;100598.94;;;14.35;74.31
19777;BME280;10047;42.490;26.012;2023-02-20T08:50:16;100578.63;;;14.55;73.28
19777;BME280;10047;42.490;26.012;2023-02-20T08:52:44;100580.59;;;14.47;70.66
19777;BME280;10047;42.490;26.012;2023-02-20T08:55:10;100512.88;;;14.08;66.47
19777;BME280;10047;42.490;26.012;2023-02-20T08:57:36;100573.13;;;14.16;64.18
19777;BME280;10047;42.490;26.012;2023-02-20T09:00:04;100566.16;;;14.46;63.28
19777;BME280;10047;42.490;26.012;2023-02-20T09:02:30;100573.06;;;14.44;67.60
19777;BME280;10047;42.490;26.012;2023-02-20T09:04:55;100521.91;;;14.42;65.46
19777;BME280;10047;42.490;26.012;2023-02-20T09:07:22;100530.66;;;14.37;65.52
19777;BME280;10047;42.490;26.012;2023-02-20T09:09:48;100583.97;;;14.97;63.83
19777;BME280;10047;42.490;26.012;2023-02-20T09:12:16;100524.75;;;14.35;60.44
19777;BME280;10047;42.490;26.012;2023-02-20T09:14:42;100583.41;;;14.89;58.41
19777;BME280;10047;42.490;26.012;2023-02-20T09:17:07;100541.47;;;14.68;54.75
19777;BME280;10047;42.490;26.012;2023-02-20T09:19:33;100591.78;;;14.92;52.78
19777;BME280;10047;42.490;26.012;2023-02-20T09:21:59;100599.25;;;14.75;52.16
19777;BME280;10047;42.490;26.012;2023-02-20T09:24:27;100590.78;;;14.96;51.83
19777;BME280;10047;42.490;26.012;2023-02-20T09:26:56;100593.25;;;14.99;53.17
19777;BME280;10047;42.490;26.012;2023-02-20T09:29:22;100573.66;;;14.98;52.28
19777;BME280;10047;42.490;26.012;2023-02-20T09:31:47;100583.13;;;15.42;51.96
19777;BME280;10047;42.490;26.012;2023-02-20T09:34:12;100595.41;;;15.33;49.00
19777;BME280;10047;42.490;26.012;2023-02-20T09:36:38;100594.28;;;14.94;46.48
19777;BME280;10047;42.490;26.012;2023-02-20T09:39:03;100596.09;;;15.81;44.97
19777;BME280;10047;42.490;26.012;2023-02-20T09:49:43;100567.75;;;14.96;47.26
19777;BME280;10047;42.490;26.012;2023-02-20T09:52:11;100624.84;;;15.46;47.49
19777;BME280;10047;42.490;26.012;2023-02-20T09:54:42;100590.63;;;15.24;45.85
19777;BME280;10047;42.490;26.012;2023-02-20T09:57:14;100626.78;;;15.16;48.46
19777;BME280;10047;42.490;26.012;2023-02-20T09:59:53;100584.63;;;14.54;52.70
19777;BME280;10047;42.490;26.012;2023-02-20T10:02:27;100647.31;;;14.67;52.26
19777;BME280;10047;42.490;26.012;2023-02-20T10:04:56;100584.84;;;14.48;52.76
19777;BME280;10047;42.490;26.012;2023-02-20T10:07:32;100653.06;;;14.73;55.42
19777;BME280;10047;42.490;26.012;2023-02-20T10:09:59;100669.03;;;15.05;55.17
19777;BME280;10047;42.490;26.012;2023-02-20T10:12:36;100627.00;;;15.10;56.44
19777;BME280;10047;42.490;26.012;2023-02-20T10:15:23;100679.44;;;15.23;56.04
19777;BME280;10047;42.490;26.012;2023-02-20T10:23:49;100691.75;;;15.14;53.29
19777;BME280;10047;42.490;26.012;2023-02-20T10:28:49;100665.47;;;14.84;51.46
19777;BME280;10047;42.490;26.012;2023-02-20T10:31:31;100712.81;;;15.22;46.51
19777;BME280;10047;42.490;26.012;2023-02-20T10:34:07;100705.31;;;15.40;44.41
19777;BME280;10047;42.490;26.012;2023-02-20T10:36:38;100692.00;;;15.31;45.16
19777;BME280;10047;42.490;26.012;2023-02-20T10:39:08;100685.75;;;14.90;43.36
19777;BME280;10047;42.490;26.012;2023-02-20T10:42:06;100674.50;;;14.94;42.90
19777;BME280;10047;42.490;26.012;2023-02-20T10:55:28;100674.94;;;15.07;42.79
19777;BME280;10047;42.490;26.012;2023-02-20T10:58:09;100657.28;;;15.22;40.41
19777;BME280;10047;42.490;26.012;2023-02-20T11:03:14;100664.41;;;15.37;40.77
19777;BME280;10047;42.490;26.012;2023-02-20T11:05:45;100673.06;;;15.35;41.09
19777;BME280;10047;42.490;26.012;2023-02-20T11:08:11;100685.91;;;15.58;40.08
19777;BME280;10047;42.490;26.012;2023-02-20T11:10:36;100681.56;;;15.35;41.94
19777;BME280;10047;42.490;26.012;2023-02-20T11:13:03;100635.88;;;15.48;40.80
19777;BME280;10047;42.490;26.012;2023-02-20T11:15:32;100631.09;;;15.37;41.58
19777;BME280;10047;42.490;26.012;2023-02-20T11:17:59;100682.63;;;16.41;38.98
19777;BME280;10047;42.490;26.012;2023-02-20T11:22:57;100683.66;;;15.94;37.86
19777;BME280;10047;42.490;26.012;2023-02-20T11:25:27;100684.84;;;16.07;37.88
19777;BME280;10047;42.490;26.012;2023-02-20T11:30:43;100676.44;;;16.03;37.10
19777;BME280;10047;42.490;26.012;2023-02-20T11:33:23;100619.47;;;16.17;37.46
19777;BME280;10047;42.490;26.012;2023-02-20T11:35:52;100661.91;;;16.45;37.50
19777;BME280;10047;42.490;26.012;2023-02-20T11:38:27;100681.38;;;15.65;39.30
19777;BME280;10047;42.490;26.012;2023-02-20T11:43:35;100630.25;;;16.25;38.86
19777;BME280;10047;42.490;26.012;2023-02-20T11:46:21;100673.69;;;16.91;38.65
19777;BME280;10047;42.490;26.012;2023-02-20T11:54:23;100675.47;;;16.49;37.05
19777;BME280;10047;42.490;26.012;2023-02-20T11:57:02;100628.63;;;16.02;40.64
19777;BME280;10047;42.490;26.012;2023-02-20T11:59:34;100667.56;;;15.90;41.04
19777;BME280;10047;42.490;26.012;2023-02-20T12:07:41;100570.28;;;15.86;39.52
19777;BME280;10047;42.490;26.012;2023-02-20T12:12:56;100637.94;;;16.25;37.13
19777;BME280;10047;42.490;26.012;2023-02-20T12:15:24;100595.06;;;16.69;36.88
19777;BME280;10047;42.490;26.012;2023-02-20T12:20:27;100580.13;;;16.36;38.11
19777;BME280;10047;42.490;26.012;2023-02-20T12:23:42;100627.09;;;16.60;37.57
19777;BME280;10047;42.490;26.012;2023-02-20T12:26:21;100621.13;;;16.98;38.92
19777;BME280;10047;42.490;26.012;2023-02-20T12:29:17;100634.16;;;16.13;39.97
19777;BME280;10047;42.490;26.012;2023-02-20T12:32:03;100619.06;;;16.47;38.31
19777;BME280;10047;42.490;26.012;2023-02-20T12:37:23;100575.13;;;16.13;38.52
19777;BME280;10047;42.490;26.012;2023-02-20T13:02:28;100662.22;;;16.38;38.92
19777;BME280;10047;42.490;26.012;2023-02-20T13:04:58;100655.59;;;16.74;39.19
19777;BME280;10047;42.490;26.012;2023-02-20T13:07:34;100616.47;;;16.88;37.90
19777;BME280;10047;42.490;26.012;2023-02-20T13:10:14;100662.59;;;17.09;37.90
19777;BME280;10047;42.490;26.012;2023-02-20T13:12:40;100581.22;;;16.11;38.31
19777;BME280;10047;42.490;26.012;2023-02-20T13:15:42;100653.22;;;16.48;37.95
19777;BME280;10047;42.490;26.012;2023-02-20T13:20:50;100613.72;;;16.52;34.50
19777;BME280;10047;42.490;26.012;2023-02-20T13:25:45;100665.03;;;16.54;38.03
19777;BME280;10047;42.490;26.012;2023-02-20T13:30:38;100641.09;;;16.73;38.30
19777;BME280;10047;42.490;26.012;2023-02-20T13:33:33;100677.75;;;16.35;40.64
19777;BME280;10047;42.490;26.012;2023-02-20T13:36:00;100672.22;;;16.66;38.58
19777;BME280;10047;42.490;26.012;2023-02-20T13:38:27;100662.41;;;16.75;38.48
19777;BME280;10047;42.490;26.012;2023-02-20T13:53:42;100624.28;;;16.24;36.17
19777;BME280;10047;42.490;26.012;2023-02-20T13:56:24;100687.22;;;16.55;35.87
19777;BME280;10047;42.490;26.012;2023-02-20T13:58:55;100672.16;;;16.25;35.67
19777;BME280;10047;42.490;26.012;2023-02-20T14:01:21;100678.31;;;16.21;35.89
19777;BME280;10047;42.490;26.012;2023-02-20T14:04:02;100694.78;;;15.94;36.45
19777;BME280;10047;42.490;26.012;2023-02-20T14:06:28;100694.38;;;15.60;35.65
19777;BME280;10047;42.490;26.012;2023-02-20T14:09:22;100687.91;;;15.95;36.49
19777;BME280;10047;42.490;26.012;2023-02-20T14:11:49;100637.50;;;15.72;36.93
19777;BME280;10047;42.490;26.012;2023-02-20T14:14:34;100626.22;;;16.19;36.11
19777;BME280;10047;42.490;26.012;2023-02-20T14:17:15;100669.47;;;16.07;35.59
19777;BME280;10047;42.490;26.012;2023-02-20T14:19:48;100700.84;;;16.13;36.24
19777;BME280;10047;42.490;26.012;2023-02-20T14:24:46;100693.81;;;15.97;37.00
19777;BME280;10047;42.490;26.012;2023-02-20T14:27:29;100652.13;;;15.47;37.30
19777;BME280;10047;42.490;26.012;2023-02-20T14:30:14;100642.50;;;15.97;36.57
19777;BME280;10047;42.490;26.012;2023-02-20T14:32:51;100698.81;;;15.55;37.83
19777;BME280;10047;42.490;26.012;2023-02-20T14:40:44;100692.50;;;18.24;32.79
19777;BME280;10047;42.490;26.012;2023-02-20T14:43:17;100686.06;;;17.41;33.60
19777;BME280;10047;42.490;26.012;2023-02-20T14:45:45;100689.22;;;17.66;33.89
19777;BME280;10047;42.490;26.012;2023-02-20T14:48:26;100679.84;;;18.36;33.10
19777;BME280;10047;42.490;26.012;2023-02-20T14:51:23;100673.44;;;17.73;33.38
19777;BME280;10047;42.490;26.012;2023-02-20T14:54:21;100677.63;;;17.76;34.06
19777;BME280;10047;42.490;26.012;2023-02-20T14:56:47;100621.72;;;17.05;34.52
19777;BME280;10047;42.490;26.012;2023-02-20T14:59:26;100681.22;;;17.34;34.45
19777;BME280;10047;42.490;26.012;2023-02-20T15:01:55;100677.31;;;15.81;36.84
19777;BME280;10047;42.490;26.012;2023-02-20T15:04:24;100620.56;;;16.53;36.15